sensor_id;sensor_type;location;lat;lon;timestamp;pressure;altitude;pressure_sealevel;temperature;humidity
71299;BME280;59083;47.974;21.722;2023-04-27T00:00:19;100565.81;;;7.12;62.42
71299;BME280;59083;47.974;21.722;2023-04-27T00:03:20;100545.59;;;7.11;62.70
71299;BME280;59083;47.974;21.722;2023-04-27T00:06:22;100552.72;;;7.18;62.57
71299;BME280;59083;47.974;21.722;2023-04-27T00:09:23;100551.88;;;7.18;63.01
71299;BME280;59083;47.974;21.722;2023-04-27T00:12:24;100552.37;;;7.05;63.12
71299;BME280;59083;47.974;21.722;2023-04-27T00:15:25;100556.00;;;7.04;63.07
71299;BME280;59083;47.974;21.722;2023-04-27T00:18:27;100551.19;;;6.99;63.01
71299;BME280;59083;47.974;21.722;2023-04-27T00:21:28;100555.75;;;6.81;63.77
71299;BME280;59083;47.974;21.722;2023-04-27T00:24:29;100554.06;;;6.80;63.76
71299;BME280;59083;47.974;21.722;2023-04-27T00:27:30;100553.66;;;6.67;64.61
71299;BME280;59083;47.974;21.722;2023-04-27T00:30:32;100551.84;;;6.59;64.55
71299;BME280;59083;47.974;21.722;2023-04-27T00:33:34;100552.25;;;6.47;65.49
71299;BME280;59083;47.974;21.722;2023-04-27T00:36:36;100550.28;;;6.49;66.07
71299;BME280;59083;47.974;21.722;2023-04-27T00:39:37;100545.00;;;6.49;66.09
71299;BME280;59083;47.974;21.722;2023-04-27T00:42:38;100543.34;;;6.48;67.12
71299;BME280;59083;47.974;21.722;2023-04-27T00:45:41;100547.91;;;6.38;66.71
71299;BME280;59083;47.974;21.722;2023-04-27T00:48:46;100538.97;;;6.39;67.13
71299;BME280;59083;47.974;21.722;2023-04-27T00:51:48;100539.28;;;6.36;67.52
71299;BME280;59083;47.974;21.722;2023-04-27T00:54:50;100539.91;;;6.30;67.56
71299;BME280;59083;47.974;21.722;2023-04-27T00:57:51;100539.59;;;6.33;67.78
71299;BME280;59083;47.974;21.722;2023-04-27T01:00:53;100554.44;;;6.26;67.41
71299;BME280;59083;47.974;21.722;2023-04-27T01:03:54;100552.16;;;6.31;68.42
71299;BME280;59083;47.974;21.722;2023-04-27T01:06:57;100544.06;;;6.32;68.46
71299;BME280;59083;47.974;21.722;2023-04-27T01:09:58;100549.53;;;6.39;68.69
71299;BME280;59083;47.974;21.722;2023-04-27T01:13:00;100548.09;;;6.44;68.42
71299;BME280;59083;47.974;21.722;2023-04-27T01:16:01;100545.91;;;6.40;68.00
71299;BME280;59083;47.974;21.722;2023-04-27T01:19:02;100568.87;;;6.31;68.16
71299;BME280;59083;47.974;21.722;2023-04-27T01:22:04;100554.44;;;6.26;69.26
71299;BME280;59083;47.974;21.722;2023-04-27T01:25:07;100549.34;;;6.06;67.99
71299;BME280;59083;47.974;21.722;2023-04-27T01:28:08;100552.69;;;5.91;68.58
71299;BME280;59083;47.974;21.722;2023-04-27T01:31:11;100553.06;;;5.96;69.20
71299;BME280;59083;47.974;21.722;2023-04-27T01:34:13;100553.91;;;5.96;69.04
71299;BME280;59083;47.974;21.722;2023-04-27T01:37:14;100556.22;;;5.81;69.57
71299;BME280;59083;47.974;21.722;2023-04-27T01:40:17;100554.25;;;5.83;70.21
71299;BME280;59083;47.974;21.722;2023-04-27T01:43:18;100558.72;;;5.83;70.18
71299;BME280;59083;47.974;21.722;2023-04-27T01:46:19;100557.00;;;5.92;70.73
71299;BME280;59083;47.974;21.722;2023-04-27T01:49:21;100559.78;;;5.90;70.08
71299;BME280;59083;47.974;21.722;2023-04-27T01:52:23;100560.62;;;5.91;70.08
71299;BME280;59083;47.974;21.722;2023-04-27T01:55:24;100557.19;;;5.98;70.53
71299;BME280;59083;47.974;21.722;2023-04-27T01:58:25;100560.53;;;6.00;72.23
71299;BME280;59083;47.974;21.722;2023-04-27T02:01:27;100563.13;;;5.92;71.90
71299;BME280;59083;47.974;21.722;2023-04-27T02:04:28;100553.81;;;5.88;71.91
71299;BME280;59083;47.974;21.722;2023-04-27T02:07:29;100554.72;;;5.79;71.36
71299;BME280;59083;47.974;21.722;2023-04-27T02:10:31;100562.31;;;5.82;71.76
71299;BME280;59083;47.974;21.722;2023-04-27T02:13:32;100545.22;;;5.68;72.53
71299;BME280;59083;47.974;21.722;2023-04-27T02:16:33;100576.53;;;5.81;72.44
71299;BME280;59083;47.974;21.722;2023-04-27T02:19:35;100575.19;;;5.77;73.03
71299;BME280;59083;47.974;21.722;2023-04-27T02:22:39;100576.75;;;5.70;73.45
71299;BME280;59083;47.974;21.722;2023-04-27T02:25:42;100584.69;;;5.70;73.55
71299;BME280;59083;47.974;21.722;2023-04-27T02:28:46;100585.59;;;5.61;74.12
71299;BME280;59083;47.974;21.722;2023-04-27T02:31:48;100596.50;;;5.58;74.36
71299;BME280;59083;47.974;21.722;2023-04-27T02:34:50;100584.53;;;5.54;73.99
71299;BME280;59083;47.974;21.722;2023-04-27T02:37:52;100589.00;;;5.53;74.11
71299;BME280;59083;47.974;21.722;2023-04-27T02:40:54;100595.09;;;5.54;73.89
71299;BME280;59083;47.974;21.722;2023-04-27T02:43:55;100595.50;;;5.59;74.52
71299;BME280;59083;47.974;21.722;2023-04-27T02:46:56;100590.59;;;5.64;74.01
71299;BME280;59083;47.974;21.722;2023-04-27T02:49:57;100603.13;;;5.62;74.58
71299;BME280;59083;47.974;21.722;2023-04-27T02:52:59;100592.84;;;5.59;73.28
71299;BME280;59083;47.974;21.722;2023-04-27T02:56:00;100590.22;;;5.41;72.72
71299;BME280;59083;47.974;21.722;2023-04-27T02:59:01;100601.38;;;5.35;72.69
71299;BME280;59083;47.974;21.722;2023-04-27T03:02:03;100595.84;;;5.28;72.87
71299;BME280;59083;47.974;21.722;2023-04-27T03:05:04;100599.53;;;5.18;73.21
71299;BME280;59083;47.974;21.722;2023-04-27T03:08:06;100609.53;;;5.14;73.86
71299;BME280;59083;47.974;21.722;2023-04-27T03:11:07;100611.91;;;5.17;73.75
71299;BME280;59083;47.974;21.722;2023-04-27T03:14:10;100621.97;;;5.31;74.61
71299;BME280;59083;47.974;21.722;2023-04-27T03:17:12;100613.16;;;5.40;74.87
71299;BME280;59083;47.974;21.722;2023-04-27T03:20:13;100618.81;;;5.46;75.64
71299;BME280;59083;47.974;21.722;2023-04-27T03:23:15;100614.59;;;5.35;76.49
71299;BME280;59083;47.974;21.722;2023-04-27T03:26:16;100612.38;;;5.30;75.03
71299;BME280;59083;47.974;21.722;2023-04-27T03:29:17;100620.88;;;5.24;74.74
71299;BME280;59083;47.974;21.722;2023-04-27T03:32:19;100620.16;;;5.05;74.37
71299;BME280;59083;47.974;21.722;2023-04-27T03:35:20;100622.06;;;5.12;74.26
71299;BME280;59083;47.974;21.722;2023-04-27T03:38:23;100626.41;;;5.04;74.19
71299;BME280;59083;47.974;21.722;2023-04-27T03:41:24;100621.56;;;4.99;74.39
71299;BME280;59083;47.974;21.722;2023-04-27T03:44:25;100630.47;;;4.98;74.69
71299;BME280;59083;47.974;21.722;2023-04-27T03:47:26;100639.56;;;5.13;75.02
71299;BME280;59083;47.974;21.722;2023-04-27T03:50:28;100655.62;;;5.29;75.64
71299;BME280;59083;47.974;21.722;2023-04-27T03:53:29;100642.00;;;5.24;75.58
71299;BME280;59083;47.974;21.722;2023-04-27T03:56:31;100646.50;;;5.41;75.16
71299;BME280;59083;47.974;21.722;2023-04-27T03:59:32;100650.03;;;5.60;74.63
71299;BME280;59083;47.974;21.722;2023-04-27T04:02:33;100645.06;;;5.57;74.85
71299;BME280;59083;47.974;21.722;2023-04-27T04:05:35;100652.66;;;5.60;75.55
71299;BME280;59083;47.974;21.722;2023-04-27T04:08:36;100652.22;;;5.64;74.05
71299;BME280;59083;47.974;21.722;2023-04-27T04:11:37;100654.97;;;5.72;72.58
71299;BME280;59083;47.974;21.722;2023-04-27T04:14:39;100661.47;;;5.78;70.99
71299;BME280;59083;47.974;21.722;2023-04-27T04:17:40;100669.06;;;5.81;71.39
71299;BME280;59083;47.974;21.722;2023-04-27T04:20:41;100667.53;;;5.88;71.61
71299;BME280;59083;47.974;21.722;2023-04-27T04:23:43;100648.13;;;5.70;71.47
71299;BME280;59083;47.974;21.722;2023-04-27T04:26:44;100672.09;;;6.13;71.97
71299;BME280;59083;47.974;21.722;2023-04-27T04:29:45;100678.91;;;7.45;66.92
71299;BME280;59083;47.974;21.722;2023-04-27T04:32:46;100677.69;;;9.11;62.61
71299;BME280;59083;47.974;21.722;2023-04-27T04:35:48;100674.91;;;10.05;57.02
71299;BME280;59083;47.974;21.722;2023-04-27T04:38:49;100677.47;;;10.21;56.78
71299;BME280;59083;47.974;21.722;2023-04-27T04:41:51;100685.16;;;10.62;53.85
71299;BME280;59083;47.974;21.722;2023-04-27T04:44:53;100686.69;;;11.23;51.80
71299;BME280;59083;47.974;21.722;2023-04-27T04:47:54;100682.06;;;11.61;50.98
71299;BME280;59083;47.974;21.722;2023-04-27T04:50:55;100693.16;;;10.16;54.81
71299;BME280;59083;47.974;21.722;2023-04-27T04:53:57;100695.88;;;9.38;55.79
71299;BME280;59083;47.974;21.722;2023-04-27T04:56:58;100700.34;;;8.66;58.94
71299;BME280;59083;47.974;21.722;2023-04-27T05:00:01;100700.34;;;8.50;59.58
71299;BME280;59083;47.974;21.722;2023-04-27T05:03:02;100707.31;;;8.43;60.80
71299;BME280;59083;47.974;21.722;2023-04-27T05:06:04;100709.16;;;8.59;59.34
71299;BME280;59083;47.974;21.722;2023-04-27T05:09:05;100708.97;;;10.18;54.72
71299;BME280;59083;47.974;21.722;2023-04-27T05:12:06;100707.47;;;11.13;50.16
71299;BME280;59083;47.974;21.722;2023-04-27T05:15:08;100711.50;;;13.10;45.34
71299;BME280;59083;47.974;21.722;2023-04-27T05:18:09;100710.84;;;13.77;43.05
71299;BME280;59083;47.974;21.722;2023-04-27T05:21:16;100720.12;;;14.61;41.11
71299;BME280;59083;47.974;21.722;2023-04-27T05:24:20;100723.22;;;14.38;39.63
71299;BME280;59083;47.974;21.722;2023-04-27T05:27:21;100727.34;;;15.13;41.58
71299;BME280;59083;47.974;21.722;2023-04-27T05:30:23;100722.31;;;15.56;39.95
71299;BME280;59083;47.974;21.722;2023-04-27T05:33:24;100720.56;;;14.52;39.68
71299;BME280;59083;47.974;21.722;2023-04-27T05:36:25;100720.78;;;13.96;39.36
71299;BME280;59083;47.974;21.722;2023-04-27T05:39:28;100732.37;;;13.00;42.16
71299;BME280;59083;47.974;21.722;2023-04-27T05:42:29;100736.00;;;12.43;44.73
71299;BME280;59083;47.974;21.722;2023-04-27T05:45:30;100738.03;;;12.20;45.51
71299;BME280;59083;47.974;21.722;2023-04-27T05:48:32;100744.56;;;11.81;45.80
71299;BME280;59083;47.974;21.722;2023-04-27T05:51:33;100744.47;;;11.60;46.08
71299;BME280;59083;47.974;21.722;2023-04-27T05:54:34;100738.56;;;12.51;44.32
71299;BME280;59083;47.974;21.722;2023-04-27T05:57:35;100749.19;;;12.87;42.88
71299;BME280;59083;47.974;21.722;2023-04-27T06:00:37;100742.53;;;14.27;40.27
71299;BME280;59083;47.974;21.722;2023-04-27T06:03:38;100750.50;;;14.75;38.95
71299;BME280;59083;47.974;21.722;2023-04-27T06:06:39;100750.91;;;13.98;40.08
71299;BME280;59083;47.974;21.722;2023-04-27T06:09:41;100751.31;;;13.95;40.17
71299;BME280;59083;47.974;21.722;2023-04-27T06:12:42;100752.97;;;14.83;39.15
71299;BME280;59083;47.974;21.722;2023-04-27T06:15:43;100753.38;;;15.19;38.68
71299;BME280;59083;47.974;21.722;2023-04-27T06:18:45;100749.25;;;14.71;38.32
71299;BME280;59083;47.974;21.722;2023-04-27T06:21:46;100755.59;;;14.37;39.91
71299;BME280;59083;47.974;21.722;2023-04-27T06:24:48;100754.97;;;13.46;42.29
71299;BME280;59083;47.974;21.722;2023-04-27T06:27:49;100757.66;;;13.87;40.52
71299;BME280;59083;47.974;21.722;2023-04-27T06:30:50;100756.13;;;15.84;38.32
71299;BME280;59083;47.974;21.722;2023-04-27T06:33:51;100752.56;;;14.86;38.00
71299;BME280;59083;47.974;21.722;2023-04-27T06:36:52;100762.75;;;16.95;35.63
71299;BME280;59083;47.974;21.722;2023-04-27T06:39:54;100762.19;;;16.86;34.44
71299;BME280;59083;47.974;21.722;2023-04-27T06:42:56;100761.25;;;17.24;33.31
71299;BME280;59083;47.974;21.722;2023-04-27T06:45:57;100757.84;;;17.90;33.41
71299;BME280;59083;47.974;21.722;2023-04-27T06:48:58;100757.06;;;18.19;32.84
71299;BME280;59083;47.974;21.722;2023-04-27T06:52:01;100757.47;;;19.06;30.65
71299;BME280;59083;47.974;21.722;2023-04-27T06:55:02;100765.78;;;18.51;30.46
71299;BME280;59083;47.974;21.722;2023-04-27T06:58:04;100774.97;;;19.26;29.69
71299;BME280;59083;47.974;21.722;2023-04-27T07:01:05;100768.66;;;17.71;32.26
71299;BME280;59083;47.974;21.722;2023-04-27T07:04:07;100769.00;;;18.60;31.14
71299;BME280;59083;47.974;21.722;2023-04-27T07:07:08;100767.16;;;18.72;30.30
71299;BME280;59083;47.974;21.722;2023-04-27T07:10:09;100763.81;;;19.58;30.11
71299;BME280;59083;47.974;21.722;2023-04-27T07:13:10;100758.56;;;18.33;31.54
71299;BME280;59083;47.974;21.722;2023-04-27T07:16:12;100762.50;;;19.25;30.24
71299;BME280;59083;47.974;21.722;2023-04-27T07:19:13;100766.09;;;18.73;30.63
71299;BME280;59083;47.974;21.722;2023-04-27T07:22:14;100769.47;;;18.08;30.68
71299;BME280;59083;47.974;21.722;2023-04-27T07:25:16;100762.06;;;18.64;30.25
71299;BME280;59083;47.974;21.722;2023-04-27T07:28:17;100760.34;;;18.81;30.23
71299;BME280;59083;47.974;21.722;2023-04-27T07:31:18;100768.63;;;18.08;30.73
71299;BME280;59083;47.974;21.722;2023-04-27T07:34:19;100755.34;;;19.54;29.78
71299;BME280;59083;47.974;21.722;2023-04-27T07:37:21;100769.66;;;19.31;28.26
71299;BME280;59083;47.974;21.722;2023-04-27T07:40:23;100772.84;;;19.28;28.53
71299;BME280;59083;47.974;21.722;2023-04-27T07:43:24;100763.44;;;19.42;28.52
71299;BME280;59083;47.974;21.722;2023-04-27T07:46:25;100772.47;;;19.83;27.96
71299;BME280;59083;47.974;21.722;2023-04-27T07:49:26;100766.75;;;19.56;29.10
71299;BME280;59083;47.974;21.722;2023-04-27T07:52:28;100769.19;;;20.21;26.52
71299;BME280;59083;47.974;21.722;2023-04-27T07:55:29;100760.41;;;17.48;28.61
71299;BME280;59083;47.974;21.722;2023-04-27T07:58:30;100771.19;;;18.51;28.22
71299;BME280;59083;47.974;21.722;2023-04-27T08:01:31;100760.88;;;17.82;28.66
71299;BME280;59083;47.974;21.722;2023-04-27T08:04:33;100774.66;;;18.70;27.17
71299;BME280;59083;47.974;21.722;2023-04-27T08:07:34;100771.81;;;18.65;26.20
71299;BME280;59083;47.974;21.722;2023-04-27T08:10:35;100768.34;;;18.16;26.01
71299;BME280;59083;47.974;21.722;2023-04-27T08:13:38;100750.06;;;16.39;26.51
71299;BME280;59083;47.974;21.722;2023-04-27T08:16:40;100775.25;;;15.16;27.86
71299;BME280;59083;47.974;21.722;2023-04-27T08:19:41;100779.78;;;15.49;26.68
71299;BME280;59083;47.974;21.722;2023-04-27T08:22:43;100775.91;;;14.92;27.20
71299;BME280;59083;47.974;21.722;2023-04-27T08:25:44;100782.84;;;13.93;29.33
71299;BME280;59083;47.974;21.722;2023-04-27T08:28:45;100777.91;;;13.55;31.17
71299;BME280;59083;47.974;21.722;2023-04-27T08:31:47;100785.38;;;13.32;32.06
71299;BME280;59083;47.974;21.722;2023-04-27T08:34:48;100783.50;;;12.83;31.61
71299;BME280;59083;47.974;21.722;2023-04-27T08:37:49;100795.72;;;12.50;32.60
71299;BME280;59083;47.974;21.722;2023-04-27T08:40:51;100793.94;;;12.57;32.71
71299;BME280;59083;47.974;21.722;2023-04-27T08:43:52;100794.81;;;12.43;32.80
71299;BME280;59083;47.974;21.722;2023-04-27T08:46:53;100788.28;;;12.67;32.61
71299;BME280;59083;47.974;21.722;2023-04-27T08:49:55;100789.97;;;12.96;32.77
71299;BME280;59083;47.974;21.722;2023-04-27T08:52:56;100790.50;;;12.84;31.90
71299;BME280;59083;47.974;21.722;2023-04-27T08:55:57;100789.59;;;12.77;32.58
71299;BME280;59083;47.974;21.722;2023-04-27T08:58:59;100788.84;;;13.26;31.92
71299;BME280;59083;47.974;21.722;2023-04-27T09:02:03;100792.22;;;13.76;31.11
71299;BME280;59083;47.974;21.722;2023-04-27T09:05:04;100782.44;;;13.27;32.21
71299;BME280;59083;47.974;21.722;2023-04-27T09:08:06;100794.16;;;13.05;32.85
71299;BME280;59083;47.974;21.722;2023-04-27T09:11:08;100769.00;;;12.99;33.79
71299;BME280;59083;47.974;21.722;2023-04-27T09:14:20;100778.91;;;12.56;33.87
71299;BME280;59083;47.974;21.722;2023-04-27T09:17:25;100778.41;;;12.89;33.40
71299;BME280;59083;47.974;21.722;2023-04-27T09:20:27;100777.88;;;13.21;33.75
71299;BME280;59083;47.974;21.722;2023-04-27T09:23:30;100766.34;;;13.96;33.27
71299;BME280;59083;47.974;21.722;2023-04-27T09:26:31;100767.78;;;14.53;32.02
71299;BME280;59083;47.974;21.722;2023-04-27T09:29:37;100757.06;;;14.46;32.67
71299;BME280;59083;47.974;21.722;2023-04-27T09:32:38;100757.88;;;13.51;33.98
71299;BME280;59083;47.974;21.722;2023-04-27T09:35:40;100771.44;;;13.43;35.05
71299;BME280;59083;47.974;21.722;2023-04-27T09:38:42;100768.81;;;13.56;33.35
71299;BME280;59083;47.974;21.722;2023-04-27T09:41:43;100769.31;;;13.32;33.47
71299;BME280;59083;47.974;21.722;2023-04-27T09:44:46;100764.81;;;13.39;33.42
71299;BME280;59083;47.974;21.722;2023-04-27T09:47:48;100769.47;;;13.58;33.37
71299;BME280;59083;47.974;21.722;2023-04-27T09:50:50;100767.97;;;13.84;32.64
71299;BME280;59083;47.974;21.722;2023-04-27T09:53:55;100763.63;;;14.37;33.14
71299;BME280;59083;47.974;21.722;2023-04-27T10:01:04;100752.78;;;14.04;31.93
71299;BME280;59083;47.974;21.722;2023-04-27T10:07:33;100752.47;;;13.38;34.41
71299;BME280;59083;47.974;21.722;2023-04-27T10:11:11;100752.94;;;13.48;33.42
71299;BME280;59083;47.974;21.722;2023-04-27T10:14:18;100763.75;;;13.68;32.82
71299;BME280;59083;47.974;21.722;2023-04-27T10:20:36;100736.19;;;13.81;33.26
71299;BME280;59083;47.974;21.722;2023-04-27T10:23:49;100744.97;;;14.09;32.28
71299;BME280;59083;47.974;21.722;2023-04-27T10:26:50;100747.00;;;14.00;32.59
71299;BME280;59083;47.974;21.722;2023-04-27T10:29:52;100744.84;;;13.76;32.89
71299;BME280;59083;47.974;21.722;2023-04-27T10:32:58;100743.84;;;14.38;31.78
71299;BME280;59083;47.974;21.722;2023-04-27T10:35:59;100748.84;;;14.74;31.88
71299;BME280;59083;47.974;21.722;2023-04-27T10:39:00;100747.59;;;14.70;30.56
71299;BME280;59083;47.974;21.722;2023-04-27T10:42:02;100744.09;;;14.82;30.63
71299;BME280;59083;47.974;21.722;2023-04-27T10:45:04;100747.50;;;14.30;30.88
71299;BME280;59083;47.974;21.722;2023-04-27T10:48:06;100739.22;;;14.12;31.25
71299;BME280;59083;47.974;21.722;2023-04-27T10:51:08;100737.94;;;14.08;32.64
71299;BME280;59083;47.974;21.722;2023-04-27T10:54:10;100742.78;;;13.78;32.18
71299;BME280;59083;47.974;21.722;2023-04-27T10:57:12;100755.59;;;13.14;32.92
71299;BME280;59083;47.974;21.722;2023-04-27T11:00:15;100741.78;;;13.45;33.20
71299;BME280;59083;47.974;21.722;2023-04-27T11:03:21;100755.50;;;13.70;34.11
71299;BME280;59083;47.974;21.722;2023-04-27T11:06:23;100747.62;;;14.09;32.69
71299;BME280;59083;47.974;21.722;2023-04-27T11:09:27;100748.56;;;13.82;31.87
71299;BME280;59083;47.974;21.722;2023-04-27T11:12:30;100750.06;;;13.97;31.46
71299;BME280;59083;47.974;21.722;2023-04-27T11:15:50;100759.16;;;13.55;33.93
71299;BME280;59083;47.974;21.722;2023-04-27T11:18:52;100760.78;;;13.56;34.84
71299;BME280;59083;47.974;21.722;2023-04-27T11:22:04;100760.47;;;13.73;33.79
71299;BME280;59083;47.974;21.722;2023-04-27T11:25:06;100744.09;;;13.20;33.94
71299;BME280;59083;47.974;21.722;2023-04-27T11:28:16;100771.91;;;12.98;34.29
71299;BME280;59083;47.974;21.722;2023-04-27T11:31:18;100767.12;;;12.72;35.40
71299;BME280;59083;47.974;21.722;2023-04-27T11:34:21;100766.81;;;12.81;35.56
71299;BME280;59083;47.974;21.722;2023-04-27T11:37:24;100773.59;;;13.05;36.78
71299;BME280;59083;47.974;21.722;2023-04-27T11:40:26;100770.66;;;13.56;35.58
71299;BME280;59083;47.974;21.722;2023-04-27T11:43:29;100766.16;;;13.56;36.50
71299;BME280;59083;47.974;21.722;2023-04-27T11:46:32;100767.62;;;13.03;35.89
71299;BME280;59083;47.974;21.722;2023-04-27T11:49:33;100768.34;;;12.91;36.34
71299;BME280;59083;47.974;21.722;2023-04-27T11:52:36;100757.88;;;12.96;36.65
71299;BME280;59083;47.974;21.722;2023-04-27T11:55:38;100766.22;;;13.35;36.32
71299;BME280;59083;47.974;21.722;2023-04-27T11:58:41;100758.66;;;13.45;35.43
71299;BME280;59083;47.974;21.722;2023-04-27T12:01:43;100757.53;;;13.61;34.91
71299;BME280;59083;47.974;21.722;2023-04-27T12:04:45;100757.31;;;13.28;34.64
71299;BME280;59083;47.974;21.722;2023-04-27T12:07:46;100748.56;;;13.13;35.34
71299;BME280;59083;47.974;21.722;2023-04-27T12:10:48;100751.59;;;13.31;36.13
71299;BME280;59083;47.974;21.722;2023-04-27T12:13:49;100753.69;;;13.36;35.24
71299;BME280;59083;47.974;21.722;2023-04-27T12:16:51;100746.00;;;13.05;35.63
71299;BME280;59083;47.974;21.722;2023-04-27T12:19:52;100758.94;;;13.22;34.93
71299;BME280;59083;47.974;21.722;2023-04-27T12:22:53;100751.31;;;13.54;34.92
71299;BME280;59083;47.974;21.722;2023-04-27T12:25:54;100752.37;;;13.25;35.76
71299;BME280;59083;47.974;21.722;2023-04-27T12:28:56;100748.00;;;12.96;35.78
71299;BME280;59083;47.974;21.722;2023-04-27T12:32:00;100758.28;;;12.93;35.99
71299;BME280;59083;47.974;21.722;2023-04-27T12:35:01;100749.66;;;12.97;36.16
71299;BME280;59083;47.974;21.722;2023-04-27T12:38:02;100754.03;;;13.26;36.07
71299;BME280;59083;47.974;21.722;2023-04-27T12:41:03;100754.63;;;13.00;35.56
71299;BME280;59083;47.974;21.722;2023-04-27T12:44:05;100751.59;;;13.31;36.02
71299;BME280;59083;47.974;21.722;2023-04-27T12:47:06;100753.25;;;12.83;35.32
71299;BME280;59083;47.974;21.722;2023-04-27T12:50:08;100749.84;;;13.17;36.57
71299;BME280;59083;47.974;21.722;2023-04-27T12:53:10;100755.72;;;12.84;35.92
71299;BME280;59083;47.974;21.722;2023-04-27T12:56:11;100749.97;;;12.88;36.23
71299;BME280;59083;47.974;21.722;2023-04-27T12:59:12;100754.97;;;12.91;36.17
71299;BME280;59083;47.974;21.722;2023-04-27T13:02:13;100751.16;;;12.57;36.28
71299;BME280;59083;47.974;21.722;2023-04-27T13:05:15;100751.78;;;12.59;36.28
71299;BME280;59083;47.974;21.722;2023-04-27T13:08:16;100752.56;;;12.53;35.77
71299;BME280;59083;47.974;21.722;2023-04-27T13:11:17;100750.94;;;12.16;36.37
71299;BME280;59083;47.974;21.722;2023-04-27T13:14:19;100749.59;;;12.41;36.98
71299;BME280;59083;47.974;21.722;2023-04-27T13:17:21;100751.56;;;12.75;36.08
71299;BME280;59083;47.974;21.722;2023-04-27T13:20:22;100747.66;;;13.06;37.19
71299;BME280;59083;47.974;21.722;2023-04-27T13:23:23;100742.13;;;13.35;36.17
71299;BME280;59083;47.974;21.722;2023-04-27T13:26:26;100746.28;;;13.44;36.31
71299;BME280;59083;47.974;21.722;2023-04-27T13:29:27;100738.13;;;13.52;35.78
71299;BME280;59083;47.974;21.722;2023-04-27T13:32:28;100741.72;;;13.66;35.04
71299;BME280;59083;47.974;21.722;2023-04-27T13:35:30;100734.25;;;13.61;34.60
71299;BME280;59083;47.974;21.722;2023-04-27T13:38:31;100724.97;;;14.18;35.03
71299;BME280;59083;47.974;21.722;2023-04-27T13:41:32;100736.91;;;14.09;35.84
71299;BME280;59083;47.974;21.722;2023-04-27T13:44:34;100737.91;;;13.95;35.23
71299;BME280;59083;47.974;21.722;2023-04-27T13:47:36;100745.66;;;13.77;35.07
71299;BME280;59083;47.974;21.722;2023-04-27T13:50:37;100743.34;;;13.67;36.57
71299;BME280;59083;47.974;21.722;2023-04-27T13:53:38;100747.59;;;13.48;38.63
71299;BME280;59083;47.974;21.722;2023-04-27T13:56:39;100754.03;;;13.05;37.66
71299;BME280;59083;47.974;21.722;2023-04-27T13:59:41;100751.19;;;13.34;38.77
71299;BME280;59083;47.974;21.722;2023-04-27T14:02:42;100751.31;;;13.54;38.82
71299;BME280;59083;47.974;21.722;2023-04-27T14:05:43;100754.78;;;13.48;37.33
71299;BME280;59083;47.974;21.722;2023-04-27T14:08:44;100758.25;;;13.42;37.51
71299;BME280;59083;47.974;21.722;2023-04-27T14:11:46;100755.84;;;12.98;39.23
71299;BME280;59083;47.974;21.722;2023-04-27T14:14:47;100759.50;;;12.48;37.34
71299;BME280;59083;47.974;21.722;2023-04-27T14:17:48;100766.06;;;12.45;38.21
71299;BME280;59083;47.974;21.722;2023-04-27T14:20:49;100756.44;;;12.29;38.35
71299;BME280;59083;47.974;21.722;2023-04-27T14:23:52;100771.25;;;12.32;38.85
71299;BME280;59083;47.974;21.722;2023-04-27T14:26:53;100767.41;;;12.20;37.66
71299;BME280;59083;47.974;21.722;2023-04-27T14:29:54;100774.06;;;12.24;38.78
71299;BME280;59083;47.974;21.722;2023-04-27T14:32:56;100774.50;;;12.27;38.42
71299;BME280;59083;47.974;21.722;2023-04-27T14:35:57;100771.91;;;12.55;38.65
71299;BME280;59083;47.974;21.722;2023-04-27T14:38:59;100769.94;;;12.85;38.85
71299;BME280;59083;47.974;21.722;2023-04-27T14:42:04;100770.38;;;12.67;37.63
71299;BME280;59083;47.974;21.722;2023-04-27T14:45:06;100775.91;;;12.45;38.26
71299;BME280;59083;47.974;21.722;2023-04-27T14:48:07;100774.72;;;12.47;38.32
71299;BME280;59083;47.974;21.722;2023-04-27T14:51:08;100769.81;;;12.51;38.51
71299;BME280;59083;47.974;21.722;2023-04-27T14:54:10;100769.81;;;12.51;38.26
71299;BME280;59083;47.974;21.722;2023-04-27T14:57:11;100773.06;;;12.46;37.59
71299;BME280;59083;47.974;21.722;2023-04-27T15:00:13;100773.81;;;12.82;38.01
71299;BME280;59083;47.974;21.722;2023-04-27T15:03:14;100769.47;;;12.81;37.74
71299;BME280;59083;47.974;21.722;2023-04-27T15:06:17;100764.44;;;12.93;38.70
71299;BME280;59083;47.974;21.722;2023-04-27T15:09:18;100760.19;;;12.77;36.65
71299;BME280;59083;47.974;21.722;2023-04-27T15:12:19;100770.06;;;12.77;38.80
71299;BME280;59083;47.974;21.722;2023-04-27T15:15:20;100770.38;;;12.67;38.13
71299;BME280;59083;47.974;21.722;2023-04-27T15:18:22;100772.53;;;12.78;38.60
71299;BME280;59083;47.974;21.722;2023-04-27T15:21:23;100774.88;;;12.88;39.25
71299;BME280;59083;47.974;21.722;2023-04-27T15:24:25;100776.72;;;12.88;39.33
71299;BME280;59083;47.974;21.722;2023-04-27T15:27:26;100784.22;;;12.99;39.75
71299;BME280;59083;47.974;21.722;2023-04-27T15:30:28;100780.06;;;12.90;39.28
71299;BME280;59083;47.974;21.722;2023-04-27T15:33:29;100776.59;;;12.96;39.20
71299;BME280;59083;47.974;21.722;2023-04-27T15:36:30;100778.03;;;12.92;38.93
71299;BME280;59083;47.974;21.722;2023-04-27T15:39:32;100778.28;;;12.97;39.49
71299;BME280;59083;47.974;21.722;2023-04-27T15:42:33;100782.41;;;12.78;39.83
71299;BME280;59083;47.974;21.722;2023-04-27T15:45:34;100780.13;;;12.54;39.73
71299;BME280;59083;47.974;21.722;2023-04-27T15:48:36;100783.38;;;12.49;39.71
71299;BME280;59083;47.974;21.722;2023-04-27T15:51:37;100782.28;;;12.65;40.09